sensor_id;sensor_type;location;lat;lon;timestamp;P1;durP1;ratioP1;P2;durP2;ratioP2
22939;SDS011;11636;52.086;5.090;2023-05-24T00:00:46;10.50;;;2.70;;
22939;SDS011;11636;52.086;5.090;2023-05-24T00:03:39;7.80;;;2.35;;
22939;SDS011;11636;52.086;5.090;2023-05-24T00:06:25;7.95;;;2.42;;
22939;SDS011;11636;52.086;5.090;2023-05-24T00:09:18;8.73;;;2.83;;
22939;SDS011;11636;52.086;5.090;2023-05-24T00:12:03;8.80;;;2.13;;
22939;SDS011;11636;52.086;5.090;2023-05-24T00:17:42;12.43;;;2.45;;
22939;SDS011;11636;52.086;5.090;2023-05-24T00:20:34;7.50;;;2.40;;
22939;SDS011;11636;52.086;5.090;2023-05-24T00:23:28;9.63;;;2.55;;
22939;SDS011;11636;52.086;5.090;2023-05-24T00:26:20;8.15;;;2.58;;
22939;SDS011;11636;52.086;5.090;2023-05-24T00:29:12;9.50;;;2.80;;
22939;SDS011;11636;52.086;5.090;2023-05-24T00:32:04;9.45;;;2.95;;
22939;SDS011;11636;52.086;5.090;2023-05-24T00:34:49;10.52;;;2.97;;
22939;SDS011;11636;52.086;5.090;2023-05-24T00:37:42;8.82;;;2.80;;
22939;SDS011;11636;52.086;5.090;2023-05-24T00:40:29;9.85;;;3.15;;
22939;SDS011;11636;52.086;5.090;2023-05-24T00:43:22;14.45;;;3.17;;
22939;SDS011;11636;52.086;5.090;2023-05-24T00:46:17;9.30;;;2.72;;
22939;SDS011;11636;52.086;5.090;2023-05-24T00:49:09;10.77;;;3.15;;
22939;SDS011;11636;52.086;5.090;2023-05-24T00:52:01;10.02;;;3.03;;
22939;SDS011;11636;52.086;5.090;2023-05-24T00:54:46;11.55;;;3.40;;
22939;SDS011;11636;52.086;5.090;2023-05-24T00:57:39;9.50;;;3.00;;
22939;SDS011;11636;52.086;5.090;2023-05-24T01:00:31;14.57;;;4.15;;
22939;SDS011;11636;52.086;5.090;2023-05-24T01:03:23;10.93;;;3.65;;
22939;SDS011;11636;52.086;5.090;2023-05-24T01:06:19;14.90;;;3.92;;
22939;SDS011;11636;52.086;5.090;2023-05-24T01:09:21;13.52;;;3.80;;
22939;SDS011;11636;52.086;5.090;2023-05-24T01:18:38;10.75;;;3.55;;
22939;SDS011;11636;52.086;5.090;2023-05-24T01:27:42;13.15;;;3.60;;
22939;SDS011;11636;52.086;5.090;2023-05-24T01:30:38;12.63;;;3.90;;
22939;SDS011;11636;52.086;5.090;2023-05-24T01:33:25;11.30;;;3.97;;
22939;SDS011;11636;52.086;5.090;2023-05-24T01:36:17;13.43;;;4.18;;
22939;SDS011;11636;52.086;5.090;2023-05-24T01:39:02;13.27;;;3.90;;
22939;SDS011;11636;52.086;5.090;2023-05-24T01:51:04;7.50;;;3.30;;
22939;SDS011;11636;52.086;5.090;2023-05-24T01:53:58;14.27;;;4.00;;
22939;SDS011;11636;52.086;5.090;2023-05-24T01:56:46;12.18;;;4.47;;
22939;SDS011;11636;52.086;5.090;2023-05-24T01:59:40;11.23;;;3.70;;
22939;SDS011;11636;52.086;5.090;2023-05-24T02:02:27;9.88;;;3.70;;
22939;SDS011;11636;52.086;5.090;2023-05-24T02:05:20;12.85;;;4.10;;
22939;SDS011;11636;52.086;5.090;2023-05-24T02:08:05;13.23;;;3.80;;
22939;SDS011;11636;52.086;5.090;2023-05-24T02:10:57;12.75;;;4.53;;
22939;SDS011;11636;52.086;5.090;2023-05-24T02:13:49;10.10;;;3.47;;
22939;SDS011;11636;52.086;5.090;2023-05-24T02:16:34;14.43;;;4.43;;
22939;SDS011;11636;52.086;5.090;2023-05-24T02:19:32;12.30;;;3.78;;
22939;SDS011;11636;52.086;5.090;2023-05-24T02:22:27;9.55;;;3.90;;
22939;SDS011;11636;52.086;5.090;2023-05-24T02:25:19;13.40;;;4.30;;
22939;SDS011;11636;52.086;5.090;2023-05-24T02:28:04;14.07;;;4.53;;
22939;SDS011;11636;52.086;5.090;2023-05-24T02:30:56;11.52;;;3.83;;
22939;SDS011;11636;52.086;5.090;2023-05-24T02:33:48;15.70;;;4.68;;
22939;SDS011;11636;52.086;5.090;2023-05-24T02:36:40;10.35;;;4.05;;
22939;SDS011;11636;52.086;5.090;2023-05-24T02:39:32;12.02;;;4.00;;
22939;SDS011;11636;52.086;5.090;2023-05-24T02:42:17;15.07;;;4.50;;
22939;SDS011;11636;52.086;5.090;2023-05-24T02:45:09;8.13;;;3.60;;
22939;SDS011;11636;52.086;5.090;2023-05-24T02:48:01;9.82;;;4.45;;
22939;SDS011;11636;52.086;5.090;2023-05-24T02:50:53;10.10;;;4.30;;
22939;SDS011;11636;52.086;5.090;2023-05-24T02:53:38;9.93;;;3.58;;
22939;SDS011;11636;52.086;5.090;2023-05-24T02:56:33;9.75;;;3.90;;
22939;SDS011;11636;52.086;5.090;2023-05-24T02:59:18;10.35;;;3.85;;
22939;SDS011;11636;52.086;5.090;2023-05-24T03:05:01;12.52;;;3.85;;
22939;SDS011;11636;52.086;5.090;2023-05-24T03:07:53;9.48;;;3.90;;
22939;SDS011;11636;52.086;5.090;2023-05-24T03:10:38;12.43;;;4.60;;
22939;SDS011;11636;52.086;5.090;2023-05-24T03:13:30;11.73;;;4.43;;
22939;SDS011;11636;52.086;5.090;2023-05-24T03:16:16;10.88;;;4.43;;
22939;SDS011;11636;52.086;5.090;2023-05-24T03:19:08;11.70;;;4.15;;
22939;SDS011;11636;52.086;5.090;2023-05-24T03:22:06;10.98;;;4.18;;
22939;SDS011;11636;52.086;5.090;2023-05-24T03:24:52;10.60;;;3.97;;
22939;SDS011;11636;52.086;5.090;2023-05-24T03:27:44;10.90;;;3.40;;
22939;SDS011;11636;52.086;5.090;2023-05-24T03:30:36;9.13;;;4.07;;
22939;SDS011;11636;52.086;5.090;2023-05-24T03:33:28;9.27;;;4.10;;
22939;SDS011;11636;52.086;5.090;2023-05-24T03:36:22;11.55;;;4.60;;
22939;SDS011;11636;52.086;5.090;2023-05-24T03:39:16;8.38;;;3.78;;
22939;SDS011;11636;52.086;5.090;2023-05-24T03:42:02;8.45;;;3.75;;
22939;SDS011;11636;52.086;5.090;2023-05-24T03:44:54;10.10;;;4.35;;
22939;SDS011;11636;52.086;5.090;2023-05-24T03:47:40;16.33;;;5.30;;
22939;SDS011;11636;52.086;5.090;2023-05-24T03:50:32;10.82;;;4.10;;
22939;SDS011;11636;52.086;5.090;2023-05-24T03:53:20;10.07;;;4.28;;
22939;SDS011;11636;52.086;5.090;2023-05-24T03:56:12;17.38;;;5.03;;
22939;SDS011;11636;52.086;5.090;2023-05-24T03:58:58;12.52;;;5.00;;
22939;SDS011;11636;52.086;5.090;2023-05-24T04:01:54;15.07;;;4.95;;
22939;SDS011;11636;52.086;5.090;2023-05-24T04:04:40;10.50;;;4.72;;
22939;SDS011;11636;52.086;5.090;2023-05-24T04:07:32;10.00;;;4.13;;
22939;SDS011;11636;52.086;5.090;2023-05-24T04:10:24;10.87;;;4.67;;
22939;SDS011;11636;52.086;5.090;2023-05-24T04:13:16;17.67;;;5.57;;
22939;SDS011;11636;52.086;5.090;2023-05-24T04:16:02;15.02;;;4.50;;
22939;SDS011;11636;52.086;5.090;2023-05-24T04:21:40;16.70;;;5.60;;
22939;SDS011;11636;52.086;5.090;2023-05-24T04:24:32;14.02;;;4.72;;
22939;SDS011;11636;52.086;5.090;2023-05-24T04:27:17;16.27;;;5.05;;
22939;SDS011;11636;52.086;5.090;2023-05-24T04:30:10;14.68;;;4.85;;
22939;SDS011;11636;52.086;5.090;2023-05-24T04:32:56;11.32;;;4.55;;
22939;SDS011;11636;52.086;5.090;2023-05-24T04:35:49;10.50;;;4.32;;
22939;SDS011;11636;52.086;5.090;2023-05-24T04:38:36;16.98;;;5.10;;
22939;SDS011;11636;52.086;5.090;2023-05-24T04:41:28;15.68;;;4.95;;
22939;SDS011;11636;52.086;5.090;2023-05-24T04:44:22;14.93;;;5.30;;
22939;SDS011;11636;52.086;5.090;2023-05-24T04:47:08;16.95;;;5.60;;
22939;SDS011;11636;52.086;5.090;2023-05-24T04:50:00;21.05;;;5.90;;
22939;SDS011;11636;52.086;5.090;2023-05-24T04:52:52;19.30;;;5.25;;
22939;SDS011;11636;52.086;5.090;2023-05-24T04:55:38;12.38;;;4.80;;
22939;SDS011;11636;52.086;5.090;2023-05-24T04:58:31;20.83;;;5.15;;
22939;SDS011;11636;52.086;5.090;2023-05-24T05:01:16;10.95;;;4.53;;
22939;SDS011;11636;52.086;5.090;2023-05-24T05:04:09;13.50;;;4.85;;
22939;SDS011;11636;52.086;5.090;2023-05-24T05:07:01;12.65;;;4.80;;
22939;SDS011;11636;52.086;5.090;2023-05-24T05:09:53;15.60;;;5.40;;
22939;SDS011;11636;52.086;5.090;2023-05-24T05:12:46;14.07;;;5.35;;
22939;SDS011;11636;52.086;5.090;2023-05-24T05:15:38;12.70;;;4.90;;
22939;SDS011;11636;52.086;5.090;2023-05-24T05:18:26;21.02;;;5.43;;
22939;SDS011;11636;52.086;5.090;2023-05-24T05:21:18;13.73;;;5.07;;
22939;SDS011;11636;52.086;5.090;2023-05-24T05:24:04;8.90;;;4.25;;
22939;SDS011;11636;52.086;5.090;2023-05-24T05:26:56;11.73;;;4.20;;
22939;SDS011;11636;52.086;5.090;2023-05-24T05:29:42;9.82;;;4.60;;
22939;SDS011;11636;52.086;5.090;2023-05-24T05:32:34;12.65;;;5.15;;
22939;SDS011;11636;52.086;5.090;2023-05-24T05:35:26;11.25;;;5.00;;
22939;SDS011;11636;52.086;5.090;2023-05-24T05:38:18;16.55;;;5.93;;
22939;SDS011;11636;52.086;5.090;2023-05-24T05:41:04;13.73;;;4.78;;
22939;SDS011;11636;52.086;5.090;2023-05-24T05:43:56;21.33;;;6.70;;
22939;SDS011;11636;52.086;5.090;2023-05-24T05:46:48;18.15;;;5.45;;
22939;SDS011;11636;52.086;5.090;2023-05-24T05:49:34;17.58;;;6.20;;
22939;SDS011;11636;52.086;5.090;2023-05-24T05:52:26;22.30;;;6.75;;
22939;SDS011;11636;52.086;5.090;2023-05-24T05:55:12;26.00;;;6.32;;
22939;SDS011;11636;52.086;5.090;2023-05-24T05:58:05;17.50;;;6.05;;
22939;SDS011;11636;52.086;5.090;2023-05-24T06:00:50;15.93;;;5.65;;
22939;SDS011;11636;52.086;5.090;2023-05-24T06:03:43;15.20;;;5.43;;
22939;SDS011;11636;52.086;5.090;2023-05-24T06:06:29;21.33;;;6.93;;
22939;SDS011;11636;52.086;5.090;2023-05-24T06:12:14;15.40;;;5.63;;
22939;SDS011;11636;52.086;5.090;2023-05-24T06:15:07;19.17;;;5.13;;
22939;SDS011;11636;52.086;5.090;2023-05-24T06:17:59;16.55;;;5.15;;
22939;SDS011;11636;52.086;5.090;2023-05-24T06:20:46;15.23;;;4.78;;
22939;SDS011;11636;52.086;5.090;2023-05-24T06:23:39;15.38;;;5.32;;
22939;SDS011;11636;52.086;5.090;2023-05-24T06:26:31;17.17;;;5.90;;
22939;SDS011;11636;52.086;5.090;2023-05-24T06:29:17;12.60;;;4.95;;
22939;SDS011;11636;52.086;5.090;2023-05-24T06:32:12;17.38;;;5.35;;
22939;SDS011;11636;52.086;5.090;2023-05-24T06:34:58;15.07;;;4.60;;
22939;SDS011;11636;52.086;5.090;2023-05-24T06:37:56;21.15;;;4.45;;
22939;SDS011;11636;52.086;5.090;2023-05-24T06:40:42;13.00;;;4.18;;
22939;SDS011;11636;52.086;5.090;2023-05-24T06:43:34;15.60;;;4.20;;
22939;SDS011;11636;52.086;5.090;2023-05-24T06:46:20;13.85;;;3.75;;
22939;SDS011;11636;52.086;5.090;2023-05-24T06:49:12;21.33;;;4.97;;
22939;SDS011;11636;52.086;5.090;2023-05-24T06:51:57;17.40;;;4.18;;
22939;SDS011;11636;52.086;5.090;2023-05-24T06:54:50;15.43;;;4.53;;
22939;SDS011;11636;52.086;5.090;2023-05-24T06:57:42;16.10;;;4.35;;
22939;SDS011;11636;52.086;5.090;2023-05-24T07:00:28;19.38;;;4.50;;
22939;SDS011;11636;52.086;5.090;2023-05-24T07:03:20;19.25;;;4.45;;
22939;SDS011;11636;52.086;5.090;2023-05-24T07:06:07;21.52;;;4.82;;
22939;SDS011;11636;52.086;5.090;2023-05-24T07:08:59;19.17;;;5.03;;
22939;SDS011;11636;52.086;5.090;2023-05-24T07:11:54;13.93;;;4.10;;
22939;SDS011;11636;52.086;5.090;2023-05-24T07:14:39;12.45;;;3.60;;
22939;SDS011;11636;52.086;5.090;2023-05-24T07:17:31;17.30;;;4.30;;
22939;SDS011;11636;52.086;5.090;2023-05-24T07:20:17;13.00;;;3.83;;
22939;SDS011;11636;52.086;5.090;2023-05-24T07:25:55;8.77;;;3.17;;
22939;SDS011;11636;52.086;5.090;2023-05-24T07:28:48;8.70;;;2.90;;
22939;SDS011;11636;52.086;5.090;2023-05-24T07:31:39;9.90;;;2.97;;
22939;SDS011;11636;52.086;5.090;2023-05-24T07:34:26;10.07;;;2.63;;
22939;SDS011;11636;52.086;5.090;2023-05-24T07:37:19;9.95;;;3.30;;
22939;SDS011;11636;52.086;5.090;2023-05-24T07:40:08;9.35;;;2.97;;
22939;SDS011;11636;52.086;5.090;2023-05-24T07:43:02;10.02;;;2.90;;
22939;SDS011;11636;52.086;5.090;2023-05-24T07:45:54;6.97;;;2.67;;
22939;SDS011;11636;52.086;5.090;2023-05-24T07:48:39;6.47;;;2.20;;
22939;SDS011;11636;52.086;5.090;2023-05-24T07:51:31;9.18;;;2.88;;
22939;SDS011;11636;52.086;5.090;2023-05-24T07:54:17;6.10;;;2.33;;
22939;SDS011;11636;52.086;5.090;2023-05-24T07:57:10;7.63;;;2.70;;
22939;SDS011;11636;52.086;5.090;2023-05-24T07:59:55;7.55;;;2.70;;
22939;SDS011;11636;52.086;5.090;2023-05-24T08:02:48;5.47;;;2.45;;
22939;SDS011;11636;52.086;5.090;2023-05-24T08:05:34;7.70;;;2.63;;
22939;SDS011;11636;52.086;5.090;2023-05-24T08:08:26;7.25;;;2.50;;
22939;SDS011;11636;52.086;5.090;2023-05-24T08:11:12;8.52;;;2.78;;
22939;SDS011;11636;52.086;5.090;2023-05-24T08:14:05;9.90;;;3.17;;
22939;SDS011;11636;52.086;5.090;2023-05-24T08:16:57;8.55;;;2.70;;
22939;SDS011;11636;52.086;5.090;2023-05-24T08:19:44;6.95;;;2.47;;
22939;SDS011;11636;52.086;5.090;2023-05-24T08:22:36;5.30;;;1.70;;
22939;SDS011;11636;52.086;5.090;2023-05-24T08:25:27;9.40;;;2.42;;
22939;SDS011;11636;52.086;5.090;2023-05-24T08:28:14;5.82;;;1.75;;
22939;SDS011;11636;52.086;5.090;2023-05-24T08:31:07;8.52;;;2.70;;
22939;SDS011;11636;52.086;5.090;2023-05-24T08:34:00;6.13;;;2.15;;
22939;SDS011;11636;52.086;5.090;2023-05-24T08:36:52;11.02;;;2.95;;
22939;SDS011;11636;52.086;5.090;2023-05-24T08:39:39;10.77;;;3.10;;
22939;SDS011;11636;52.086;5.090;2023-05-24T08:42:31;7.82;;;2.53;;
22939;SDS011;11636;52.086;5.090;2023-05-24T08:45:22;6.60;;;2.30;;
22939;SDS011;11636;52.086;5.090;2023-05-24T08:48:17;7.72;;;2.50;;
22939;SDS011;11636;52.086;5.090;2023-05-24T08:51:03;7.85;;;2.47;;
22939;SDS011;11636;52.086;5.090;2023-05-24T08:53:59;6.35;;;2.25;;
22939;SDS011;11636;52.086;5.090;2023-05-24T08:56:52;7.72;;;2.42;;
22939;SDS011;11636;52.086;5.090;2023-05-24T08:59:43;8.77;;;2.70;;
22939;SDS011;11636;52.086;5.090;2023-05-24T09:02:29;7.90;;;2.75;;
22939;SDS011;11636;52.086;5.090;2023-05-24T09:05:23;5.47;;;2.50;;
22939;SDS011;11636;52.086;5.090;2023-05-24T09:08:16;8.80;;;2.60;;
22939;SDS011;11636;52.086;5.090;2023-05-24T09:11:17;7.60;;;2.63;;
22939;SDS011;11636;52.086;5.090;2023-05-24T09:14:05;8.70;;;2.70;;
22939;SDS011;11636;52.086;5.090;2023-05-24T09:16:58;7.40;;;2.72;;
22939;SDS011;11636;52.086;5.090;2023-05-24T09:19:51;7.88;;;2.60;;
22939;SDS011;11636;52.086;5.090;2023-05-24T09:22:43;5.00;;;2.22;;
22939;SDS011;11636;52.086;5.090;2023-05-24T09:25:32;10.20;;;3.38;;
22939;SDS011;11636;52.086;5.090;2023-05-24T09:28:24;8.82;;;2.53;;
22939;SDS011;11636;52.086;5.090;2023-05-24T09:31:09;9.27;;;3.22;;
22939;SDS011;11636;52.086;5.090;2023-05-24T09:36:48;8.18;;;2.90;;
22939;SDS011;11636;52.086;5.090;2023-05-24T09:39:43;8.55;;;2.67;;
22939;SDS011;11636;52.086;5.090;2023-05-24T09:42:38;5.95;;;2.22;;
22939;SDS011;11636;52.086;5.090;2023-05-24T09:45:23;10.23;;;3.10;;
22939;SDS011;11636;52.086;5.090;2023-05-24T09:48:17;8.52;;;3.00;;
22939;SDS011;11636;52.086;5.090;2023-05-24T09:51:11;8.60;;;3.25;;
22939;SDS011;11636;52.086;5.090;2023-05-24T09:54:04;8.82;;;2.83;;
22939;SDS011;11636;52.086;5.090;2023-05-24T09:56:50;7.70;;;2.60;;
22939;SDS011;11636;52.086;5.090;2023-05-24T09:59:42;5.53;;;2.50;;
22939;SDS011;11636;52.086;5.090;2023-05-24T10:02:28;7.75;;;2.63;;
22939;SDS011;11636;52.086;5.090;2023-05-24T10:05:36;5.30;;;2.10;;
22939;SDS011;11636;52.086;5.090;2023-05-24T10:08:29;7.15;;;2.42;;
22939;SDS011;11636;52.086;5.090;2023-05-24T10:11:24;5.68;;;2.50;;
22939;SDS011;11636;52.086;5.090;2023-05-24T10:14:10;8.40;;;3.03;;
22939;SDS011;11636;52.086;5.090;2023-05-24T10:17:04;6.45;;;2.35;;
22939;SDS011;11636;52.086;5.090;2023-05-24T10:19:50;5.15;;;2.17;;
22939;SDS011;11636;52.086;5.090;2023-05-24T10:22:43;6.43;;;2.30;;
22939;SDS011;11636;52.086;5.090;2023-05-24T10:25:31;5.30;;;2.13;;
22939;SDS011;11636;52.086;5.090;2023-05-24T10:28:25;7.22;;;2.58;;
22939;SDS011;11636;52.086;5.090;2023-05-24T10:31:21;5.20;;;2.20;;
22939;SDS011;11636;52.086;5.090;2023-05-24T10:34:11;6.95;;;2.30;;
22939;SDS011;11636;52.086;5.090;2023-05-24T10:37:04;7.22;;;2.45;;
22939;SDS011;11636;52.086;5.090;2023-05-24T10:39:50;7.07;;;2.20;;
22939;SDS011;11636;52.086;5.090;2023-05-24T10:42:42;7.38;;;2.35;;
22939;SDS011;11636;52.086;5.090;2023-05-24T10:51:32;10.02;;;3.50;;
22939;SDS011;11636;52.086;5.090;2023-05-24T10:54:27;7.28;;;2.90;;
22939;SDS011;11636;52.086;5.090;2023-05-24T10:57:12;8.38;;;2.83;;
22939;SDS011;11636;52.086;5.090;2023-05-24T11:03:18;8.52;;;3.25;;
22939;SDS011;11636;52.086;5.090;2023-05-24T11:06:15;7.10;;;2.83;;
22939;SDS011;11636;52.086;5.090;2023-05-24T11:09:01;12.70;;;4.40;;
22939;SDS011;11636;52.086;5.090;2023-05-24T11:11:54;8.45;;;3.70;;
22939;SDS011;11636;52.086;5.090;2023-05-24T11:14:47;8.15;;;2.88;;
22939;SDS011;11636;52.086;5.090;2023-05-24T11:21:04;6.05;;;2.60;;
22939;SDS011;11636;52.086;5.090;2023-05-24T11:23:50;8.20;;;2.95;;
22939;SDS011;11636;52.086;5.090;2023-05-24T11:26:42;7.32;;;2.95;;
22939;SDS011;11636;52.086;5.090;2023-05-24T11:29:42;7.55;;;2.90;;
22939;SDS011;11636;52.086;5.090;2023-05-24T11:32:29;7.47;;;2.38;;
22939;SDS011;11636;52.086;5.090;2023-05-24T11:35:22;7.43;;;2.58;;
22939;SDS011;11636;52.086;5.090;2023-05-24T11:38:12;8.35;;;2.28;;
22939;SDS011;11636;52.086;5.090;2023-05-24T11:41:09;8.68;;;2.70;;
22939;SDS011;11636;52.086;5.090;2023-05-24T11:43:55;7.13;;;2.45;;
22939;SDS011;11636;52.086;5.090;2023-05-24T11:46:47;8.05;;;2.70;;
22939;SDS011;11636;52.086;5.090;2023-05-24T11:49:33;7.00;;;2.53;;
22939;SDS011;11636;52.086;5.090;2023-05-24T11:52:25;9.43;;;2.65;;
22939;SDS011;11636;52.086;5.090;2023-05-24T11:55:11;8.77;;;2.80;;
22939;SDS011;11636;52.086;5.090;2023-05-24T11:58:05;7.82;;;2.83;;
22939;SDS011;11636;52.086;5.090;2023-05-24T12:00:55;10.95;;;2.97;;
22939;SDS011;11636;52.086;5.090;2023-05-24T12:03:47;7.47;;;2.33;;
22939;SDS011;11636;52.086;5.090;2023-05-24T12:06:43;11.32;;;2.97;;
22939;SDS011;11636;52.086;5.090;2023-05-24T12:09:28;7.85;;;2.60;;
22939;SDS011;11636;52.086;5.090;2023-05-24T12:12:20;10.77;;;2.72;;
22939;SDS011;11636;52.086;5.090;2023-05-24T12:15:17;6.68;;;2.63;;
22939;SDS011;11636;52.086;5.090;2023-05-24T12:18:19;6.10;;;2.42;;
22939;SDS011;11636;52.086;5.090;2023-05-24T12:21:11;5.30;;;2.45;;
22939;SDS011;11636;52.086;5.090;2023-05-24T12:24:06;8.88;;;2.88;;
22939;SDS011;11636;52.086;5.090;2023-05-24T12:27:00;9.48;;;2.70;;
22939;SDS011;11636;52.086;5.090;2023-05-24T12:29:51;5.43;;;1.93;;
22939;SDS011;11636;52.086;5.090;2023-05-24T12:32:50;12.40;;;2.72;;
22939;SDS011;11636;52.086;5.090;2023-05-24T12:35:41;7.60;;;2.50;;
22939;SDS011;11636;52.086;5.090;2023-05-24T12:38:33;6.53;;;2.00;;
22939;SDS011;11636;52.086;5.090;2023-05-24T12:41:25;6.93;;;2.40;;
22939;SDS011;11636;52.086;5.090;2023-05-24T12:44:25;5.18;;;2.10;;
22939;SDS011;11636;52.086;5.090;2023-05-24T12:47:35;7.22;;;2.28;;
22939;SDS011;11636;52.086;5.090;2023-05-24T12:50:24;8.05;;;2.72;;
22939;SDS011;11636;52.086;5.090;2023-05-24T12:53:17;7.00;;;2.20;;
22939;SDS011;11636;52.086;5.090;2023-05-24T12:56:10;8.60;;;3.40;;
22939;SDS011;11636;52.086;5.090;2023-05-24T12:58:56;10.45;;;3.53;;
22939;SDS011;11636;52.086;5.090;2023-05-24T13:01:48;9.23;;;2.90;;
22939;SDS011;11636;52.086;5.090;2023-05-24T13:04:42;8.90;;;2.60;;
22939;SDS011;11636;52.086;5.090;2023-05-24T13:07:27;6.53;;;2.65;;
22939;SDS011;11636;52.086;5.090;2023-05-24T13:10:21;8.48;;;2.67;;
22939;SDS011;11636;52.086;5.090;2023-05-24T13:13:14;6.95;;;2.17;;
22939;SDS011;11636;52.086;5.090;2023-05-24T13:15:59;10.27;;;3.15;;
22939;SDS011;11636;52.086;5.090;2023-05-24T13:18:51;8.30;;;2.58;;
22939;SDS011;11636;52.086;5.090;2023-05-24T13:21:37;8.48;;;2.40;;
22939;SDS011;11636;52.086;5.090;2023-05-24T13:24:29;8.30;;;2.45;;
22939;SDS011;11636;52.086;5.090;2023-05-24T13:27:21;5.68;;;2.25;;
22939;SDS011;11636;52.086;5.090;2023-05-24T13:30:13;6.03;;;2.65;;
22939;SDS011;11636;52.086;5.090;2023-05-24T13:33:07;8.00;;;2.78;;
22939;SDS011;11636;52.086;5.090;2023-05-24T13:36:00;7.03;;;2.50;;
22939;SDS011;11636;52.086;5.090;2023-05-24T13:38:46;6.10;;;2.38;;
22939;SDS011;11636;52.086;5.090;2023-05-24T13:41:57;6.70;;;2.17;;
22939;SDS011;11636;52.086;5.090;2023-05-24T13:44:51;6.78;;;2.22;;
22939;SDS011;11636;52.086;5.090;2023-05-24T13:47:45;6.70;;;2.25;;
22939;SDS011;11636;52.086;5.090;2023-05-24T13:50:32;5.57;;;1.88;;
22939;SDS011;11636;52.086;5.090;2023-05-24T13:53:25;6.88;;;2.05;;
22939;SDS011;11636;52.086;5.090;2023-05-24T13:59:02;6.18;;;2.30;;
22939;SDS011;11636;52.086;5.090;2023-05-24T14:01:55;7.75;;;2.30;;
22939;SDS011;11636;52.086;5.090;2023-05-24T14:07:33;6.85;;;2.35;;
22939;SDS011;11636;52.086;5.090;2023-05-24T14:10:25;8.02;;;2.33;;
22939;SDS011;11636;52.086;5.090;2023-05-24T14:13:11;7.00;;;2.60;;
22939;SDS011;11636;52.086;5.090;2023-05-24T14:16:07;6.72;;;2.75;;
22939;SDS011;11636;52.086;5.090;2023-05-24T14:18:53;7.70;;;2.42;;
22939;SDS011;11636;52.086;5.090;2023-05-24T14:21:45;4.72;;;2.00;;
22939;SDS011;11636;52.086;5.090;2023-05-24T14:24:37;7.15;;;2.58;;
22939;SDS011;11636;52.086;5.090;2023-05-24T14:27:29;5.60;;;1.90;;
22939;SDS011;11636;52.086;5.090;2023-05-24T14:30:21;7.00;;;2.50;;
22939;SDS011;11636;52.086;5.090;2023-05-24T14:33:13;6.55;;;2.30;;
22939;SDS011;11636;52.086;5.090;2023-05-24T14:35:59;8.00;;;2.67;;
22939;SDS011;11636;52.086;5.090;2023-05-24T14:38:50;8.05;;;2.60;;
22939;SDS011;11636;52.086;5.090;2023-05-24T14:41:35;6.88;;;2.38;;
22939;SDS011;11636;52.086;5.090;2023-05-24T14:44:27;7.82;;;2.17;;
22939;SDS011;11636;52.086;5.090;2023-05-24T14:47:13;5.10;;;1.70;;
22939;SDS011;11636;52.086;5.090;2023-05-24T14:50:05;4.43;;;1.90;;
22939;SDS011;11636;52.086;5.090;2023-05-24T14:52:57;5.28;;;1.80;;
22939;SDS011;11636;52.086;5.090;2023-05-24T14:55:51;6.40;;;2.15;;
22939;SDS011;11636;52.086;5.090;2023-05-24T14:58:44;4.78;;;2.00;;
22939;SDS011;11636;52.086;5.090;2023-05-24T15:01:30;5.95;;;2.17;;
22939;SDS011;11636;52.086;5.090;2023-05-24T15:04:21;6.37;;;2.00;;
22939;SDS011;11636;52.086;5.090;2023-05-24T15:07:13;4.65;;;1.90;;
22939;SDS011;11636;52.086;5.090;2023-05-24T15:09:59;5.93;;;2.03;;
22939;SDS011;11636;52.086;5.090;2023-05-24T15:12:51;7.07;;;2.00;;
22939;SDS011;11636;52.086;5.090;2023-05-24T15:15:36;6.07;;;2.28;;
22939;SDS011;11636;52.086;5.090;2023-05-24T15:18:29;5.00;;;1.98;;
22939;SDS011;11636;52.086;5.090;2023-05-24T15:21:15;4.45;;;1.90;;
22939;SDS011;11636;52.086;5.090;2023-05-24T15:24:07;4.60;;;1.80;;
22939;SDS011;11636;52.086;5.090;2023-05-24T15:26:53;7.18;;;2.03;;
22939;SDS011;11636;52.086;5.090;2023-05-24T15:32:37;5.20;;;1.88;;
22939;SDS011;11636;52.086;5.090;2023-05-24T15:35:23;6.00;;;1.90;;
22939;SDS011;11636;52.086;5.090;2023-05-24T15:38:15;4.85;;;2.08;;
22939;SDS011;11636;52.086;5.090;2023-05-24T15:41:08;5.00;;;2.00;;
22939;SDS011;11636;52.086;5.090;2023-05-24T15:43:54;4.75;;;1.85;;
22939;SDS011;11636;52.086;5.090;2023-05-24T15:49:39;4.22;;;1.90;;
22939;SDS011;11636;52.086;5.090;2023-05-24T15:52:30;4.32;;;1.58;;
22939;SDS011;11636;52.086;5.090;2023-05-24T15:55:17;3.33;;;1.48;;
22939;SDS011;11636;52.086;5.090;2023-05-24T15:58:08;5.32;;;1.90;;
22939;SDS011;11636;52.086;5.090;2023-05-24T16:00:57;4.82;;;1.98;;
22939;SDS011;11636;52.086;5.090;2023-05-24T16:03:49;5.78;;;1.90;;
22939;SDS011;11636;52.086;5.090;2023-05-24T16:06:35;5.90;;;1.92;;
22939;SDS011;11636;52.086;5.090;2023-05-24T16:09:27;4.82;;;1.80;;
22939;SDS011;11636;52.086;5.090;2023-05-24T16:12:13;3.92;;;1.80;;
22939;SDS011;11636;52.086;5.090;2023-05-24T16:15:04;2.73;;;1.50;;
22939;SDS011;11636;52.086;5.090;2023-05-24T16:17:57;6.53;;;2.60;;
22939;SDS011;11636;52.086;5.090;2023-05-24T16:20:43;5.57;;;2.15;;
22939;SDS011;11636;52.086;5.090;2023-05-24T16:23:39;4.93;;;2.10;;
22939;SDS011;11636;52.086;5.090;2023-05-24T16:26:25;4.22;;;2.05;;
22939;SDS011;11636;52.086;5.090;2023-05-24T16:29:21;5.60;;;1.88;;
22939;SDS011;11636;52.086;5.090;2023-05-24T16:32:07;5.95;;;1.80;;
22939;SDS011;11636;52.086;5.090;2023-05-24T16:35:00;5.20;;;2.20;;
22939;SDS011;11636;52.086;5.090;2023-05-24T16:37:45;4.82;;;2.40;;
22939;SDS011;11636;52.086;5.090;2023-05-24T16:40:38;4.72;;;2.30;;
22939;SDS011;11636;52.086;5.090;2023-05-24T16:43:26;4.85;;;2.30;;
22939;SDS011;11636;52.086;5.090;2023-05-24T16:46:17;4.20;;;2.55;;
22939;SDS011;11636;52.086;5.090;2023-05-24T16:49:10;5.05;;;2.08;;
22939;SDS011;11636;52.086;5.090;2023-05-24T16:52:01;5.22;;;1.75;;
22939;SDS011;11636;52.086;5.090;2023-05-24T16:54:47;6.72;;;2.30;;
22939;SDS011;11636;52.086;5.090;2023-05-24T16:57:38;4.85;;;1.92;;
22939;SDS011;11636;52.086;5.090;2023-05-24T17:00:24;5.93;;;2.15;;
22939;SDS011;11636;52.086;5.090;2023-05-24T17:03:16;3.85;;;1.90;;
22939;SDS011;11636;52.086;5.090;2023-05-24T17:06:13;4.40;;;1.80;;
22939;SDS011;11636;52.086;5.090;2023-05-24T17:09:04;5.13;;;2.28;;
22939;SDS011;11636;52.086;5.090;2023-05-24T17:11:50;4.63;;;2.03;;
22939;SDS011;11636;52.086;5.090;2023-05-24T17:14:42;4.95;;;1.88;;
22939;SDS011;11636;52.086;5.090;2023-05-24T17:17:27;3.80;;;1.70;;
22939;SDS011;11636;52.086;5.090;2023-05-24T17:20:20;4.85;;;1.67;;
22939;SDS011;11636;52.086;5.090;2023-05-24T17:23:05;6.05;;;2.25;;
22939;SDS011;11636;52.086;5.090;2023-05-24T17:25:58;6.25;;;1.83;;
22939;SDS011;11636;52.086;5.090;2023-05-24T17:28:46;6.63;;;2.10;;
22939;SDS011;11636;52.086;5.090;2023-05-24T17:31:37;3.75;;;1.70;;
22939;SDS011;11636;52.086;5.090;2023-05-24T17:34:23;7.95;;;2.30;;
22939;SDS011;11636;52.086;5.090;2023-05-24T17:37:16;5.93;;;2.30;;
22939;SDS011;11636;52.086;5.090;2023-05-24T17:40:01;4.85;;;2.00;;
22939;SDS011;11636;52.086;5.090;2023-05-24T17:42:53;5.32;;;2.10;;
22939;SDS011;11636;52.086;5.090;2023-05-24T17:45:39;5.10;;;2.00;;
22939;SDS011;11636;52.086;5.090;2023-05-24T17:48:31;5.28;;;2.13;;
22939;SDS011;11636;52.086;5.090;2023-05-24T17:51:23;6.22;;;2.20;;
22939;SDS011;11636;52.086;5.090;2023-05-24T17:54:09;6.95;;;2.80;;
22939;SDS011;11636;52.086;5.090;2023-05-24T17:59:53;6.13;;;2.35;;
22939;SDS011;11636;52.086;5.090;2023-05-24T18:02:39;6.50;;;2.20;;
22939;SDS011;11636;52.086;5.090;2023-05-24T18:08:17;7.05;;;2.83;;
22939;SDS011;11636;52.086;5.090;2023-05-24T18:11:09;5.68;;;1.85;;